createdAt,value
2018-09-22T17:50:40.533Z,60.94
2018-09-22T17:51:40.511Z,59.53
2018-09-22T17:52:40.502Z,61.04
2018-09-22T17:53:40.499Z,60.53
2018-09-22T17:54:40.492Z,59.74
2018-09-22T17:55:40.468Z,59.53
2018-09-22T17:56:40.463Z,59.44
2018-09-22T17:57:40.445Z,59.44
2018-09-22T17:58:40.446Z,59.44
2018-09-22T17:59:40.479Z,59.74
2018-09-22T18:00:40.445Z,59.74
2018-09-22T18:01:40.400Z,59.83
2018-09-22T18:02:40.426Z,59.74
2018-09-22T18:03:40.388Z,59.23
2018-09-22T18:04:40.415Z,60.14
2018-09-22T18:05:40.355Z,60.14
2018-09-22T18:06:40.357Z,59.23
2018-09-22T18:07:40.363Z,60.03
2018-09-22T18:08:40.325Z,59.44
2018-09-22T18:09:40.358Z,60.14
2018-09-22T18:10:40.300Z,60.03
2018-09-22T18:11:40.314Z,59.11
2018-09-22T18:12:40.284Z,59.50
2018-09-22T18:13:40.267Z,59.13
2018-09-22T18:14:40.262Z,59.61
2018-09-22T18:15:40.262Z,59.91
2018-09-22T18:16:40.294Z,59.41
2018-09-22T18:17:40.228Z,59.41
2018-09-22T18:18:40.272Z,59.44
2018-09-22T18:19:40.209Z,59.31
2018-09-22T18:20:40.226Z,59.91
2018-09-22T18:21:40.232Z,59.53
2018-09-22T18:22:40.189Z,59.91
2018-09-22T18:23:40.181Z,59.70
2018-09-22T18:24:40.148Z,59.50
2018-09-22T18:25:40.160Z,59.31
2018-09-22T18:26:40.157Z,59.74
2018-09-22T18:27:40.113Z,60.01
2018-09-22T18:28:40.312Z,59.94
2018-09-22T18:29:40.109Z,59.31
2018-09-22T18:30:40.094Z,59.23
2018-09-22T18:31:40.089Z,59.81
2018-09-22T18:32:40.057Z,59.31
2018-09-22T18:33:40.048Z,59.81
2018-09-22T18:34:40.059Z,59.61
2018-09-22T18:35:40.066Z,59.31
2018-09-22T18:36:40.019Z,59.70
2018-09-22T18:37:40.045Z,59.70
2018-09-22T18:38:40.045Z,59.53
2018-09-22T18:39:39.987Z,59.94
2018-09-22T18:40:39.975Z,59.64
2018-09-22T18:41:39.985Z,59.94
2018-09-22T18:42:39.970Z,59.70
2018-09-22T18:43:39.965Z,59.74
2018-09-22T18:44:39.927Z,60.44
2018-09-22T18:45:39.970Z,60.53
2018-09-22T18:46:39.936Z,59.74
2018-09-22T18:47:39.947Z,59.41
2018-09-22T18:48:39.918Z,59.94
2018-09-22T18:49:39.882Z,59.74
2018-09-22T18:50:39.862Z,60.53
2018-09-22T18:51:39.883Z,60.64
2018-09-22T18:52:39.858Z,60.84
2018-09-22T18:53:39.835Z,59.74
2018-09-22T18:54:40.716Z,59.94
2018-09-22T18:55:40.065Z,59.44
2018-09-22T18:56:39.795Z,59.64
2018-09-22T18:57:39.798Z,60.03
2018-09-22T18:58:39.848Z,59.74
2018-09-22T18:59:39.768Z,60.14
2018-09-22T19:00:39.749Z,59.13
2018-09-22T19:01:39.741Z,60.14
2018-09-22T19:02:39.748Z,59.94
2018-09-22T19:03:39.784Z,59.33
2018-09-22T19:04:39.720Z,59.33
2018-09-22T19:05:39.724Z,59.64
2018-09-22T19:06:39.707Z,59.74
2018-09-22T19:07:39.720Z,59.53
2018-09-22T19:08:39.665Z,59.33
2018-09-22T19:09:39.653Z,59.83
2018-09-22T19:10:39.670Z,60.24
2018-09-22T19:11:39.638Z,60.33
2018-09-22T19:12:39.646Z,59.83
2018-09-22T19:13:39.657Z,60.33
2018-09-22T19:14:39.639Z,60.61
2018-09-22T19:15:39.587Z,59.81
2018-09-22T19:16:39.609Z,59.81
2018-09-22T19:17:39.600Z,60.31
2018-09-22T19:18:39.560Z,60.31
2018-09-22T19:19:39.560Z,59.70
2018-09-22T19:20:39.536Z,59.91
2018-09-22T19:21:39.570Z,60.21
2018-09-22T19:22:39.517Z,60.41
2018-09-22T19:23:39.994Z,60.21
2018-09-22T19:24:39.490Z,60.81
2018-09-22T19:25:39.493Z,59.91
2018-09-22T19:26:39.475Z,60.41
2018-09-22T19:27:39.460Z,60.91
2018-09-22T19:28:39.463Z,60.91
2018-09-22T19:29:39.497Z,60.61
2018-09-22T19:30:39.428Z,60.31
2018-09-22T19:31:39.441Z,59.31
2018-09-22T19:32:39.430Z,59.70
2018-09-22T19:33:39.404Z,59.41
2018-09-22T19:34:39.415Z,59.81
2018-09-22T19:35:39.370Z,60.01
2018-09-22T19:36:39.353Z,60.11
2018-09-22T19:37:39.362Z,58.91
2018-09-22T19:38:39.428Z,59.50
2018-09-22T19:39:39.353Z,60.51
2018-09-22T19:40:39.316Z,60.21
2018-09-22T19:41:39.307Z,59.91
2018-09-22T19:42:39.297Z,60.24
2018-09-22T19:43:39.294Z,60.21
2018-09-22T19:44:39.268Z,60.31
2018-09-22T19:45:39.270Z,60.11
2018-09-22T19:46:39.266Z,60.31
2018-09-22T19:47:39.232Z,60.03
2018-09-22T19:48:39.239Z,60.21
2018-09-22T19:49:39.240Z,60.31
2018-09-22T19:50:39.212Z,60.33
2018-09-22T19:51:39.216Z,59.94
2018-09-22T19:52:39.192Z,61.04
2018-09-22T19:53:39.191Z,61.11
2018-09-22T19:54:39.214Z,60.61
2018-09-22T19:55:39.188Z,60.61
2018-09-22T19:56:39.198Z,60.31
2018-09-22T19:57:39.171Z,60.91
2018-09-22T19:58:39.133Z,60.41
2018-09-22T19:59:39.176Z,61.21
2018-09-22T20:00:39.352Z,60.51
2018-09-22T20:01:39.098Z,60.31
2018-09-22T20:02:39.251Z,60.91
2018-09-22T20:03:39.082Z,60.71
2018-09-22T20:04:39.053Z,60.81
2018-09-22T20:05:39.064Z,60.51
2018-09-22T20:06:39.031Z,60.84
2018-09-22T20:07:39.020Z,60.71
2018-09-22T20:08:39.006Z,61.11
2018-09-22T20:09:39.106Z,60.61
2018-09-22T20:10:38.984Z,60.31
2018-09-22T20:11:38.999Z,60.31
2018-09-22T20:12:39.028Z,60.61
2018-09-22T20:13:38.988Z,61.01
2018-09-22T20:14:38.975Z,60.91
2018-09-22T20:15:38.999Z,60.31
2018-09-22T20:16:39.036Z,60.84
2018-09-22T20:17:39.062Z,60.21
2018-09-22T20:18:39.751Z,60.33
2018-09-22T20:19:38.931Z,60.74
2018-09-22T20:20:38.872Z,60.61
2018-09-22T20:21:38.895Z,60.81
2018-09-22T20:22:39.111Z,60.31
2018-09-22T20:23:38.977Z,60.81
2018-09-22T20:24:38.857Z,60.33
2018-09-22T20:25:38.818Z,60.64
2018-09-22T20:26:38.809Z,60.64
2018-09-22T20:27:38.798Z,61.21
2018-09-22T20:28:38.783Z,61.41
2018-09-22T20:29:38.774Z,60.51
2018-09-22T20:30:38.784Z,60.81
2018-09-22T20:31:38.855Z,60.24
2018-09-22T20:32:38.758Z,60.51
2018-09-22T20:33:38.731Z,61.04
2018-09-22T20:34:38.723Z,60.53
2018-09-22T20:35:38.720Z,60.94
2018-09-22T20:36:38.722Z,61.11
2018-09-22T20:37:38.718Z,60.31
2018-09-22T20:38:38.795Z,60.31
2018-09-22T20:39:38.677Z,60.44
2018-09-22T20:40:38.678Z,60.33
2018-09-22T20:41:38.731Z,60.21
2018-09-22T20:42:38.638Z,60.51
2018-09-22T20:43:38.632Z,60.61
2018-09-22T20:44:38.635Z,60.81
2018-09-22T20:45:38.645Z,60.51
2018-09-22T20:46:38.586Z,61.21
2018-09-22T20:47:38.727Z,60.33
2018-09-22T20:48:38.586Z,60.71
2018-09-22T20:49:38.581Z,60.61
2018-09-22T20:50:38.672Z,60.64
2018-09-22T20:51:38.547Z,60.33
2018-09-22T20:52:38.650Z,60.41
2018-09-22T20:53:38.563Z,60.44
2018-09-22T20:54:38.537Z,60.91
2018-09-22T20:55:38.494Z,60.61
2018-09-22T20:56:38.493Z,61.04
2018-09-22T20:57:38.466Z,60.61
2018-09-22T20:58:38.461Z,60.94
2018-09-22T20:59:38.468Z,60.81
2018-09-22T21:00:38.449Z,60.81
2018-09-22T21:01:38.457Z,60.64
2018-09-22T21:02:38.417Z,60.64
2018-09-22T21:03:38.400Z,61.04
2018-09-22T21:04:38.394Z,60.51
2018-09-22T21:05:38.384Z,60.71
2018-09-22T21:06:38.387Z,60.71
2018-09-22T21:07:38.357Z,60.84
2018-09-22T21:08:38.352Z,60.71
2018-09-22T21:09:38.342Z,60.44
2018-09-22T21:10:38.369Z,60.74
2018-09-22T21:11:38.359Z,61.44
2018-09-22T21:12:38.313Z,61.34
2018-09-22T21:13:38.307Z,60.61
2018-09-22T21:14:38.312Z,60.31
2018-09-22T21:15:38.278Z,60.81
2018-09-22T21:16:38.281Z,60.74
2018-09-22T21:17:38.250Z,60.84
2018-09-22T21:18:38.287Z,60.84
2018-09-22T21:19:38.262Z,60.61
2018-09-22T21:20:38.215Z,60.84
2018-09-22T21:21:38.207Z,61.11
2018-09-22T21:22:38.208Z,61.04
2018-09-22T21:23:38.185Z,61.01
2018-09-22T21:24:38.184Z,61.04
2018-09-22T21:25:38.161Z,60.84
2018-09-22T21:26:38.148Z,60.94
